KIGM

Kingman Airport

Kingman, Arizona, USA
METAR KIGM 200651Z AUTO 19005KT 10SM CLR M03/M09 A2988 RMK AO2 SLP105 T10281094 401111039 $
Observed Flight Rules
Feb-20 @ 06:51 UTC (25 minutes ago) Visual Flight Rules
Wind Visibility Clouds
190° at 5 knots 10 miles
  • Clear skies
Temperatures Readings
Current -3°C / 27°F
Dewpoint -9°C / 16°F
Humidity 64%
Altimeter 29.88" Hg
Pressure 1010.5 hPa
Elevation 1032
METAR KIGM 200651Z AUTO 19005KT 10SM CLR M03/M09 A2988 RMK AO2 SLP105 T10281094 401111039 $
Observed Flight Rules
Feb-20 @ 06:51 UTC
(25 minutes ago)
VFR
Wind Visibility
190° at 5 knots 10 miles
Clouds
  • Clear skies
Temperature Dewpoint
-3°C / 27°F -9°C / 16°F
Humidity Altimeter Pressure
64% 29.88" Hg 1010.5 hPa